Time;durP1;ratioP1;P1;durP2;ratioP2;P2;SDS_P1;SDS_P2;PMS_P1;PMS_P2;Temp;Humidity;BMP_temperature;BMP_pressure;BME280_temperature;BME280_humidity;BME280_pressure;Samples;Min_cycle;Max_cycle;Signal;HPM_P1;HPM_P2
2021/06/14 00:00:25;;;;;;;6.75;5.72;;;17.40;99.90;;;;;;5056928;28;20067;-84
2021/06/14 00:02:51;;;;;;;5.75;5.25;;;17.30;99.90;;;;;;5057107;28;20021;-83
2021/06/14 00:05:33;;;;;;;5.57;5.07;;;17.30;99.90;;;;;;5057113;28;20036;-84
2021/06/14 00:08:00;;;;;;;7.10;6.38;;;17.30;99.90;;;;;;5055550;28;20029;-84
2021/06/14 00:10:27;;;;;;;6.60;5.95;;;17.30;99.90;;;;;;5055278;28;20140;-84
2021/06/14 00:12:56;;;;;;;5.95;5.30;;;17.30;99.90;;;;;;5056390;28;20108;-84
2021/06/14 00:15:28;;;;;;;6.57;5.95;;;17.30;99.90;;;;;;5038911;28;20029;-84
2021/06/14 00:18:04;;;;;;;7.13;5.72;;;17.30;99.90;;;;;;5039201;28;20083;-84
2021/06/14 00:20:38;;;;;;;6.55;5.93;;;17.40;99.90;;;;;;5055342;28;20031;-83
2021/06/14 00:23:15;;;;;;;6.70;6.00;;;17.40;99.90;;;;;;5057049;28;20021;-84
2021/06/14 00:25:43;;;;;;;6.45;5.47;;;17.40;99.90;;;;;;5055126;28;20657;-84
2021/06/14 00:28:30;;;;;;;6.05;5.43;;;17.40;99.90;;;;;;5038523;28;20029;-84
2021/06/14 00:30:58;;;;;;;6.25;5.65;;;17.40;99.90;;;;;;5054118;28;20127;-84
2021/06/14 00:34:08;;;;;;;7.68;6.53;;;17.40;99.90;;;;;;5056310;28;20039;-84
2021/06/14 00:36:34;;;;;;;6.70;5.60;;;17.30;99.90;;;;;;5054912;28;20017;-84
2021/06/14 00:39:03;;;;;;;6.03;5.53;;;17.20;99.90;;;;;;5056507;28;20029;-84
2021/06/14 00:41:36;;;;;;;7.00;6.40;;;17.20;99.90;;;;;;5058777;28;20558;-84
2021/06/14 00:44:05;;;;;;;7.25;5.93;;;17.20;99.90;;;;;;5074906;28;20032;-84
2021/06/14 00:46:38;;;;;;;7.35;6.65;;;17.10;99.90;;;;;;5075973;28;20027;-84
2021/06/14 00:49:23;;;;;;;5.78;5.18;;;17.10;99.90;;;;;;5076399;28;20078;-84
2021/06/14 00:52:20;;;;;;;5.45;4.95;;;17.10;99.90;;;;;;5074636;28;20067;-84
2021/06/14 00:54:57;;;;;;;5.72;5.22;;;17.10;99.90;;;;;;5074713;28;20462;-84
2021/06/14 00:57:24;;;;;;;5.63;5.13;;;17.10;99.90;;;;;;5075868;28;20109;-85
2021/06/14 00:59:52;;;;;;;7.47;6.70;;;17.10;99.90;;;;;;5075785;28;20089;-84
2021/06/14 01:02:23;;;;;;;6.97;6.38;;;17.10;99.90;;;;;;5057746;28;20394;-84
2021/06/14 01:05:01;;;;;;;7.70;6.53;;;17.10;99.90;;;;;;5057950;28;20036;-84
2021/06/14 01:07:29;;;;;;;8.68;5.65;;;17.10;99.90;;;;;;5075944;28;20386;-84
2021/06/14 01:09:57;;;;;;;6.78;5.95;;;17.10;99.90;;;;;;5074337;28;20020;-84
2021/06/14 01:12:33;;;;;;;7.57;6.00;;;17.10;99.90;;;;;;5064497;28;20060;-84
2021/06/14 01:15:14;;;;;;;6.20;5.60;;;17.00;99.90;;;;;;5025711;28;20432;-84
2021/06/14 01:17:53;;;;;;;5.93;5.32;;;17.00;99.90;;;;;;5075499;28;20583;-84
2021/06/14 01:20:34;;;;;;;5.50;4.85;;;17.00;99.90;;;;;;5057582;28;20020;-84
2021/06/14 01:23:37;;;;;;;6.55;5.95;;;17.00;99.90;;;;;;5057567;28;20023;-84
2021/06/14 01:26:10;;;;;;;7.43;6.63;;;16.90;99.90;;;;;;5075293;28;20028;-84
2021/06/14 01:28:47;;;;;;;7.15;6.43;;;17.00;99.90;;;;;;5057288;28;20021;-84
2021/06/14 01:31:16;;;;;;;8.15;7.18;;;17.10;99.90;;;;;;5074783;28;20132;-84
2021/06/14 01:33:45;;;;;;;8.90;8.00;;;17.00;99.90;;;;;;5075176;28;20028;-84
2021/06/14 01:36:29;;;;;;;7.13;6.40;;;17.10;99.90;;;;;;5058036;28;20067;-84
2021/06/14 01:38:58;;;;;;;6.82;6.00;;;17.20;99.90;;;;;;5057659;28;20021;-85
2021/06/14 01:41:27;;;;;;;5.87;5.33;;;17.20;99.90;;;;;;5063597;28;20096;-85
2021/06/14 01:43:53;;;;;;;6.72;6.10;;;17.30;99.90;;;;;;5060210;28;20066;-85
2021/06/14 01:46:38;;;;;;;7.55;6.82;;;17.30;99.90;;;;;;5095191;28;20020;-85
2021/06/14 01:49:09;;;;;;;5.95;5.35;;;17.40;99.90;;;;;;5076299;28;20035;-84
2021/06/14 01:51:40;;;;;;;6.40;5.82;;;17.40;99.90;;;;;;5076450;28;20028;-84
2021/06/14 01:54:11;;;;;;;6.10;5.50;;;17.40;99.90;;;;;;5095019;28;20051;-84
2021/06/14 01:56:49;;;;;;;7.20;5.60;;;17.50;99.90;;;;;;5076733;28;20027;-85
2021/06/14 01:59:45;;;;;;;5.75;5.20;;;17.50;99.90;;;;;;5094930;28;20103;-84
2021/06/14 02:02:11;;;;;;;5.93;5.35;;;17.50;99.90;;;;;;5074920;28;20462;-84
2021/06/14 02:04:41;;;;;;;5.93;5.40;;;17.60;99.90;;;;;;5076892;28;20024;-84
2021/06/14 02:07:12;;;;;;;6.97;6.28;;;17.60;99.90;;;;;;5077191;28;20032;-84
2021/06/14 02:09:48;;;;;;;6.95;6.20;;;17.50;99.90;;;;;;5094700;28;20054;-84
2021/06/14 02:12:50;;;;;;;;;;;;;;;;;;;;;
2021/06/14 02:15:29;;;;;;;;;;;;;;;;;;;;;
2021/06/14 02:18:01;;;;;;;7.00;5.90;;;17.50;99.90;;;;;;5079068;28;20024;-84
2021/06/14 02:20:34;;;;;;;6.47;5.88;;;17.50;99.90;;;;;;5078058;28;20024;-84
2021/06/14 02:23:11;;;;;;;6.55;5.95;;;17.60;99.90;;;;;;5075557;28;20064;-84
2021/06/14 02:25:46;;;;;;;7.00;6.20;;;17.60;99.90;;;;;;5094655;28;20428;-84
2021/06/14 02:28:15;;;;;;;8.05;6.35;;;17.60;99.90;;;;;;5076494;28;20028;-84
2021/06/14 02:30:47;;;;;;;5.20;4.80;;;17.70;99.90;;;;;;5094496;28;20484;-84
2021/06/14 02:33:13;;;;;;;6.53;5.90;;;17.60;99.90;;;;;;5094382;28;20089;-84
2021/06/14 02:35:39;;;;;;;6.47;5.38;;;17.70;99.90;;;;;;5076477;28;20024;-84
2021/06/14 02:38:07;;;;;;;6.00;5.32;;;17.70;99.90;;;;;;5059420;28;20097;-84
2021/06/14 02:40:39;;;;;;;6.50;5.90;;;17.70;99.90;;;;;;5059515;28;20397;-84
2021/06/14 02:43:16;;;;;;;6.32;5.20;;;17.70;99.90;;;;;;5094407;28;20028;-84
2021/06/14 02:45:44;;;;;;;5.88;5.28;;;17.70;99.90;;;;;;5075931;28;20051;-84
2021/06/14 02:48:17;;;;;;;6.43;5.55;;;17.70;99.90;;;;;;5058795;28;20063;-84
2021/06/14 02:50:44;;;;;;;6.05;5.05;;;17.70;99.90;;;;;;5094045;28;20038;-84
2021/06/14 02:53:13;;;;;;;5.15;4.65;;;17.70;99.90;;;;;;5059685;28;20040;-84
2021/06/14 02:56:27;;;;;;;5.78;5.18;;;17.70;99.90;;;;;;5093549;28;20023;-84
2021/06/14 02:58:57;;;;;;;5.30;4.80;;;17.80;99.90;;;;;;4975428;28;20034;-84
2021/06/14 03:01:41;;;;;;;4.57;4.18;;;17.70;99.90;;;;;;4960911;28;20037;-84
2021/06/14 03:04:15;;;;;;;5.25;4.75;;;17.70;99.90;;;;;;5077196;28;20108;-84
2021/06/14 03:09:39;;;;;;;6.38;5.78;;;17.70;99.90;;;;;;5093726;28;20020;-85
2021/06/14 03:12:10;;;;;;;6.35;4.80;;;17.70;99.90;;;;;;5074617;28;20473;-85
2021/06/14 03:14:36;;;;;;;6.55;5.72;;;17.70;99.90;;;;;;5093717;28;20024;-85
2021/06/14 03:17:04;;;;;;;5.75;5.25;;;17.70;99.90;;;;;;5093730;28;20035;-85
2021/06/14 03:19:34;;;;;;;6.82;6.13;;;17.70;99.90;;;;;;5093706;28;20020;-85
2021/06/14 03:22:03;;;;;;;5.85;5.32;;;17.80;99.90;;;;;;5075663;28;20023;-85
2021/06/14 03:24:35;;;;;;;6.65;5.90;;;17.80;99.90;;;;;;5093391;28;20036;-85
2021/06/14 03:27:10;;;;;;;6.57;5.97;;;17.80;99.90;;;;;;5059822;28;20150;-85
2021/06/14 03:29:39;;;;;;;5.60;5.10;;;17.90;99.90;;;;;;5076600;28;20088;-85
2021/06/14 03:32:05;;;;;;;6.05;5.45;;;17.90;99.90;;;;;;5075565;28;20489;-85
2021/06/14 03:34:36;;;;;;;6.00;5.50;;;17.90;99.90;;;;;;5074746;28;20409;-85
2021/06/14 03:37:05;;;;;;;5.93;5.32;;;17.90;99.90;;;;;;5093606;28;20813;-85
2021/06/14 03:39:31;;;;;;;7.23;5.87;;;17.90;99.90;;;;;;5058831;28;20039;-85
2021/06/14 03:41:58;;;;;;;6.93;6.18;;;18.00;99.90;;;;;;5074978;28;20115;-85
2021/06/14 03:44:25;;;;;;;6.72;6.13;;;18.10;99.90;;;;;;5094375;28;20036;-85
2021/06/14 03:46:51;;;;;;;6.47;5.85;;;18.20;99.90;;;;;;5075255;28;20047;-85
2021/06/14 03:49:41;;;;;;;5.90;5.07;;;18.30;99.90;;;;;;5075467;28;20031;-85
2021/06/14 03:52:27;;;;;;;6.07;5.57;;;18.50;99.90;;;;;;5045965;28;20385;-85
2021/06/14 03:55:03;;;;;;;7.03;5.57;;;18.60;99.90;;;;;;5058652;28;20028;-85
2021/06/14 03:57:33;;;;;;;5.82;4.93;;;18.60;99.90;;;;;;5060581;28;20074;-86
2021/06/14 04:00:28;;;;;;;5.88;5.38;;;18.70;99.90;;;;;;5093059;28;20534;-86
2021/06/14 04:02:56;;;;;;;6.18;5.57;;;18.80;99.90;;;;;;5066403;28;20436;-86
2021/06/14 04:05:43;;;;;;;6.32;5.72;;;18.80;99.90;;;;;;5075847;28;20036;-86
2021/06/14 04:08:14;;;;;;;6.88;6.13;;;18.80;99.90;;;;;;5062138;28;20059;-86
2021/06/14 04:10:45;;;;;;;7.45;5.65;;;18.90;99.90;;;;;;5058902;28;20116;-86
2021/06/14 04:13:13;;;;;;;6.13;5.53;;;18.90;99.90;;;;;;5075672;28;20032;-86
2021/06/14 04:15:41;;;;;;;5.75;5.25;;;19.00;99.90;;;;;;5076665;28;20095;-87
2021/06/14 04:18:11;;;;;;;6.97;5.15;;;19.00;99.90;;;;;;5075640;28;20025;-87
2021/06/14 04:20:38;;;;;;;6.45;5.70;;;19.00;99.90;;;;;;5075685;28;20025;-87
2021/06/14 04:23:07;;;;;;;6.40;5.80;;;19.00;99.90;;;;;;5057960;28;20036;-87
2021/06/14 04:25:32;;;;;;;6.40;5.80;;;19.00;99.90;;;;;;5074765;28;20032;-88
2021/06/14 04:28:02;;;;;;;5.47;4.97;;;19.10;99.90;;;;;;5074796;28;20031;-88
2021/06/14 04:30:31;;;;;;;5.88;5.38;;;19.20;99.90;;;;;;5075754;28;20037;-87
2021/06/14 04:33:02;;;;;;;8.15;6.28;;;19.30;99.90;;;;;;5074690;28;20045;-88
2021/06/14 04:35:33;;;;;;;8.13;6.25;;;19.30;99.90;;;;;;5059456;28;20119;-88
2021/06/14 04:37:59;;;;;;;7.03;6.32;;;19.30;99.90;;;;;;5075276;28;20035;-88
2021/06/14 04:40:27;;;;;;;6.50;5.90;;;19.30;99.90;;;;;;5074082;28;20024;-88
2021/06/14 04:43:03;;;;;;;6.97;6.30;;;19.30;99.90;;;;;;5075456;28;20071;-89
2021/06/14 04:45:32;;;;;;;8.65;7.15;;;19.40;99.90;;;;;;5076712;28;20082;-89
2021/06/14 04:47:58;;;;;;;7.72;6.80;;;19.40;99.90;;;;;;5076509;28;20021;-89
2021/06/14 04:50:25;;;;;;;7.30;6.60;;;19.40;99.90;;;;;;5076441;28;20035;-89
2021/06/14 04:53:04;;;;;;;7.20;6.50;;;19.50;99.90;;;;;;5075447;28;20024;-89
2021/06/14 04:55:33;;;;;;;7.47;6.37;;;19.60;99.90;;;;;;5074491;28;20020;-88
2021/06/14 04:58:12;;;;;;;7.70;6.90;;;19.70;99.90;;;;;;5074966;28;20116;-89
2021/06/14 05:00:39;;;;;;;8.82;7.88;;;19.80;99.90;;;;;;5075412;28;20031;-88
2021/06/14 05:03:30;;;;;;;8.77;7.63;;;19.80;99.90;;;;;;5076147;28;20108;-88
2021/06/14 05:05:56;;;;;;;9.73;7.80;;;19.80;99.90;;;;;;5074966;28;20531;-88
2021/06/14 05:08:25;;;;;;;11.27;7.75;;;19.90;99.90;;;;;;5074833;28;20466;-87
2021/06/14 05:10:50;;;;;;;8.75;7.70;;;20.00;99.90;;;;;;5075828;28;20082;-88
2021/06/14 05:13:16;;;;;;;8.68;7.78;;;20.00;99.90;;;;;;5075488;28;20036;-88
2021/06/14 05:15:42;;;;;;;8.25;7.25;;;20.00;99.90;;;;;;5057558;28;20021;-88
2021/06/14 05:18:11;;;;;;;10.13;8.68;;;20.10;99.90;;;;;;5057473;28;20066;-86
2021/06/14 05:20:46;;;;;;;10.70;8.73;;;20.00;99.90;;;;;;5057770;28;20070;-88
2021/06/14 05:23:12;;;;;;;14.45;10.27;;;20.10;99.90;;;;;;5058628;28;20366;-88
2021/06/14 05:25:39;;;;;;;12.70;11.40;;;20.20;99.90;;;;;;5075933;28;20028;-88
2021/06/14 05:28:05;;;;;;;14.38;12.70;;;20.20;99.90;;;;;;5057396;28;20029;-88
2021/06/14 05:30:33;;;;;;;11.27;10.07;;;20.30;99.90;;;;;;5040813;28;20036;-87
2021/06/14 05:33:00;;;;;;;8.93;8.13;;;20.30;99.90;;;;;;5057534;28;20102;-87
2021/06/14 05:35:26;;;;;;;12.43;8.68;;;20.40;99.90;;;;;;5057232;28;20103;-87
2021/06/14 05:37:53;;;;;;;11.75;9.45;;;20.40;99.90;;;;;;5057392;28;20466;-87
2021/06/14 05:40:29;;;;;;;9.60;8.70;;;20.50;99.90;;;;;;5057547;28;20364;-87
2021/06/14 05:43:07;;;;;;;;;;;;;;;;;;;;;
2021/06/14 05:45:35;;;;;;;13.75;10.73;;;20.50;99.90;;;;;;5074635;28;20044;-87
2021/06/14 05:48:07;;;;;;;11.35;9.23;;;20.60;99.90;;;;;;5041531;28;20040;-87
2021/06/14 05:50:48;;;;;;;14.02;9.23;;;20.60;99.90;;;;;;5058489;28;20035;-87
2021/06/14 05:53:15;;;;;;;13.13;9.45;;;20.60;99.90;;;;;;5056601;28;20086;-87
2021/06/14 05:55:49;;;;;;;11.25;9.27;;;20.70;99.90;;;;;;5056833;28;20027;-87
2021/06/14 05:58:17;;;;;;;11.93;9.82;;;20.70;99.90;;;;;;5056922;28;20032;-87
2021/06/14 06:00:45;;;;;;;10.43;7.90;;;20.80;99.90;;;;;;5040866;28;20059;-87
2021/06/14 06:03:23;;;;;;;13.98;9.52;;;20.80;99.90;;;;;;5075045;28;20033;-86
2021/06/14 06:05:51;;;;;;;10.85;9.30;;;20.80;99.90;;;;;;5025425;28;20043;-86
2021/06/14 06:08:40;;;;;;;11.27;9.95;;;20.90;99.90;;;;;;5074471;28;20078;-85
2021/06/14 06:11:10;;;;;;;10.80;8.40;;;20.90;99.90;;;;;;5056968;28;20112;-87
2021/06/14 06:13:43;;;;;;;12.43;9.23;;;20.90;99.90;;;;;;5056360;28;20470;-84
2021/06/14 06:16:18;;;;;;;16.85;10.68;;;20.90;99.90;;;;;;5056392;28;20394;-86
2021/06/14 06:19:00;;;;;;;12.13;10.45;;;21.00;99.90;;;;;;5074656;28;20107;-86
2021/06/14 06:21:36;;;;;;;14.93;12.02;;;21.10;99.90;;;;;;5056019;28;20115;-87
2021/06/14 06:24:06;;;;;;;11.55;10.30;;;21.10;99.90;;;;;;5056386;28;20528;-87
2021/06/14 06:26:33;;;;;;;13.23;11.60;;;21.20;99.90;;;;;;5074125;28;20093;-87
2021/06/14 06:29:17;;;;;;;11.30;10.20;;;21.20;99.90;;;;;;5056259;28;20430;-87
2021/06/14 06:31:44;;;;;;;14.05;11.15;;;21.20;99.90;;;;;;5055698;28;20048;-88
2021/06/14 06:34:14;;;;;;;14.38;11.93;;;21.20;99.90;;;;;;5074162;28;20057;-88
2021/06/14 06:36:40;;;;;;;12.57;10.88;;;21.30;99.90;;;;;;5040022;28;20695;-89
2021/06/14 06:39:24;;;;;;;16.90;13.40;;;21.30;99.90;;;;;;5074060;28;20044;-87
2021/06/14 06:42:02;;;;;;;15.40;11.70;;;21.40;99.90;;;;;;5036578;28;20032;-87
2021/06/14 06:44:31;;;;;;;19.17;13.43;;;21.40;99.90;;;;;;5038103;28;20547;-87
2021/06/14 06:47:01;;;;;;;15.02;13.50;;;21.50;99.90;;;;;;5036097;28;20028;-87
2021/06/14 06:49:48;;;;;;;14.48;11.93;;;21.50;99.90;;;;;;5053838;28;20033;-88
2021/06/14 06:52:20;;;;;;;15.90;12.65;;;21.50;99.90;;;;;;5021343;28;20163;-87
2021/06/14 06:54:48;;;;;;;15.40;12.25;;;21.50;99.90;;;;;;5034383;28;20040;-87
2021/06/14 06:57:16;;;;;;;17.23;12.65;;;21.50;99.90;;;;;;5037275;28;20036;-88
2021/06/14 06:59:42;;;;;;;15.27;12.05;;;21.50;99.90;;;;;;5035740;28;20029;-88
2021/06/14 07:02:09;;;;;;;13.85;12.30;;;21.60;99.90;;;;;;5019130;28;20469;-88
2021/06/14 07:04:39;;;;;;;25.20;15.32;;;21.60;99.90;;;;;;5035273;28;20108;-87
2021/06/14 07:07:06;;;;;;;14.75;11.65;;;21.70;99.90;;;;;;5035175;28;20025;-87
2021/06/14 07:09:32;;;;;;;27.50;15.63;;;21.70;99.90;;;;;;5058342;28;20037;-88
2021/06/14 07:11:58;;;;;;;15.63;12.10;;;21.70;99.90;;;;;;5055287;28;20115;-87
2021/06/14 07:14:25;;;;;;;16.92;12.55;;;21.80;99.90;;;;;;5038756;28;20028;-87
2021/06/14 07:16:53;;;;;;;13.98;11.15;;;21.80;99.90;;;;;;5072987;28;20031;-87
2021/06/14 07:19:22;;;;;;;17.27;12.02;;;21.80;99.90;;;;;;5055038;28;20052;-86
2021/06/14 07:21:49;;;;;;;13.43;11.48;;;21.80;99.90;;;;;;5055510;28;20474;-90
2021/06/14 07:24:19;;;;;;;14.38;11.00;;;21.80;99.90;;;;;;5038900;28;20120;-88
2021/06/14 07:26:45;;;;;;;14.43;11.40;;;21.80;99.90;;;;;;5055621;28;20020;-88
2021/06/14 07:29:11;;;;;;;13.25;11.80;;;21.90;99.90;;;;;;5074011;28;20059;-94
2021/06/14 07:31:37;;;;;;;12.77;10.23;;;21.90;99.90;;;;;;5039815;28;20049;-91
2021/06/14 07:34:03;;;;;;;13.27;9.75;;;21.90;99.90;;;;;;5023282;28;20393;-93
2021/06/14 07:36:30;;;;;;;12.55;11.25;;;21.90;99.90;;;;;;5055888;28;20033;-91
2021/06/14 07:38:56;;;;;;;15.27;11.65;;;21.90;99.90;;;;;;5055482;28;20025;-88
2021/06/14 07:41:22;;;;;;;15.27;11.40;;;21.90;99.90;;;;;;5074537;28;20394;-91
2021/06/14 07:43:53;;;;;;;13.02;11.20;;;21.90;99.90;;;;;;5077260;28;20081;-88
2021/06/14 07:46:22;;;;;;;13.35;11.85;;;21.90;99.90;;;;;;5076876;28;20040;-87
2021/06/14 07:48:48;;;;;;;11.32;9.98;;;21.90;99.90;;;;;;5059697;28;20047;-89
2021/06/14 07:51:15;;;;;;;11.57;9.48;;;21.90;99.90;;;;;;5077472;28;20024;-88
2021/06/14 07:53:41;;;;;;;11.10;9.73;;;22.00;99.90;;;;;;5076043;28;20466;-85
2021/06/14 07:56:07;;;;;;;13.02;10.73;;;22.00;99.90;;;;;;5059597;28;20031;-89
2021/06/14 07:58:33;;;;;;;11.25;9.95;;;22.00;99.90;;;;;;5057973;28;20045;-86
2021/06/14 08:01:03;;;;;;;11.45;9.88;;;22.00;99.90;;;;;;5058983;28;20587;-86
2021/06/14 08:03:29;;;;;;;16.35;12.60;;;22.10;99.90;;;;;;5076188;28;20074;-86
2021/06/14 08:05:56;;;;;;;11.50;9.30;;;22.10;99.90;;;;;;5076984;28;20497;-88
2021/06/14 08:08:23;;;;;;;14.35;10.48;;;22.10;99.90;;;;;;5076106;28;20024;-87
2021/06/14 08:10:50;;;;;;;10.25;8.80;;;22.20;99.90;;;;;;5075603;28;20041;-86
2021/06/14 08:13:20;;;;;;;10.00;8.98;;;22.30;99.90;;;;;;5075902;28;20032;-88
2021/06/14 08:15:48;;;;;;;9.50;8.50;;;22.30;99.90;;;;;;5075688;28;20035;-87
2021/06/14 08:18:33;;;;;;;10.38;8.85;;;22.30;99.90;;;;;;5075671;28;20253;-86
2021/06/14 08:26:38;;;;;;;8.38;7.25;;;22.40;99.90;;;;;;5076181;28;20128;-87
2021/06/14 08:29:10;;;;;;;8.38;7.43;;;22.50;99.30;;;;;;5055548;28;20520;-87
2021/06/14 08:31:44;;;;;;;8.65;7.43;;;22.50;99.50;;;;;;5038464;28;20055;-87
2021/06/14 08:34:32;;;;;;;9.20;7.07;;;22.50;99.40;;;;;;5041520;28;20360;-86
2021/06/14 08:37:18;;;;;;;9.70;7.88;;;22.60;99.40;;;;;;5040175;28;20371;-89
2021/06/14 08:39:46;;;;;;;;;;;22.60;99.50;;;;;;5039842;28;20029;-90
2021/06/14 08:42:11;;;;;;;8.20;7.40;;;22.60;98.80;;;;;;5055212;28;19911;-88
2021/06/14 08:44:39;;;;;;;8.30;7.50;;;22.60;99.30;;;;;;5039128;28;20029;-87
2021/06/14 08:47:08;;;;;;;7.38;6.40;;;22.70;99.20;;;;;;5038340;28;20025;-87
2021/06/14 08:49:36;;;;;;;8.95;7.20;;;22.70;99.00;;;;;;5022065;28;20119;-88
2021/06/14 08:52:06;;;;;;;7.65;6.85;;;22.70;98.90;;;;;;5037632;28;20036;-87
2021/06/14 08:54:43;;;;;;;7.20;6.45;;;22.70;98.90;;;;;;5038325;28;20048;-87
2021/06/14 08:57:13;;;;;;;8.00;6.70;;;22.70;97.80;;;;;;5038319;28;20032;-86
2021/06/14 08:59:45;;;;;;;7.45;6.07;;;22.80;97.40;;;;;;5022254;28;20478;-85
2021/06/14 09:02:12;;;;;;;9.20;6.55;;;22.80;97.70;;;;;;5037995;28;20025;-85
2021/06/14 09:04:40;;;;;;;9.93;6.88;;;22.80;97.40;;;;;;5038055;28;20028;-86
2021/06/14 09:07:11;;;;;;;7.80;6.50;;;22.80;97.60;;;;;;5038208;28;20055;-87
2021/06/14 09:09:50;;;;;;;6.50;5.80;;;22.80;97.60;;;;;;5024068;28;20108;-87
2021/06/14 09:12:21;;;;;;;5.75;5.25;;;22.80;97.90;;;;;;5052680;28;20024;-90
2021/06/14 09:14:49;;;;;;;6.47;5.70;;;22.90;97.80;;;;;;5041605;28;20023;-87
2021/06/14 09:17:17;;;;;;;6.45;5.80;;;22.90;97.70;;;;;;5057969;28;20029;-88
2021/06/14 09:19:51;;;;;;;6.50;5.90;;;23.00;97.70;;;;;;5041354;28;20056;-88
2021/06/14 09:22:27;;;;;;;6.18;5.57;;;23.00;97.50;;;;;;5057923;28;20024;-89
2021/06/14 09:24:55;;;;;;;5.85;5.30;;;23.00;97.50;;;;;;5058085;28;20032;-88
2021/06/14 09:27:31;;;;;;;7.53;5.40;;;23.00;97.30;;;;;;5058215;28;20031;-90
2021/06/14 09:30:32;;;;;;;6.32;5.70;;;23.10;96.80;;;;;;5075916;28;20056;-88
2021/06/14 09:33:03;;;;;;;6.03;5.40;;;23.10;96.80;;;;;;5040813;28;20074;-89
2021/06/14 09:35:35;;;;;;;6.18;5.30;;;23.20;96.90;;;;;;5054449;28;20037;-88
2021/06/14 09:38:23;;;;;;;6.95;5.10;;;23.20;96.60;;;;;;5055671;28;20074;-87
2021/06/14 09:41:14;;;;;;;5.75;4.95;;;23.30;96.60;;;;;;5054601;28;20471;-89
2021/06/14 09:43:45;;;;;;;5.45;4.95;;;23.30;95.70;;;;;;5051763;28;20059;-87
2021/06/14 09:46:36;;;;;;;5.15;4.65;;;23.30;95.90;;;;;;5038029;28;20033;-88
2021/06/14 09:49:05;;;;;;;4.95;4.45;;;23.40;96.10;;;;;;5054536;28;20079;-89
2021/06/14 09:51:50;;;;;;;4.93;4.53;;;23.30;95.80;;;;;;5054612;28;20025;-88
2021/06/14 09:54:26;;;;;;;5.35;4.85;;;23.40;95.80;;;;;;5054519;28;20025;-91
2021/06/14 09:57:07;;;;;;;5.25;4.50;;;23.40;95.70;;;;;;5054164;28;20021;-91
2021/06/14 09:59:45;;;;;;;6.50;5.57;;;23.50;96.00;;;;;;5040129;28;20037;-90
2021/06/14 10:02:18;;;;;;;4.90;4.50;;;23.50;95.90;;;;;;5055941;28;20079;-89
2021/06/14 10:04:53;;;;;;;5.70;5.13;;;23.50;96.10;;;;;;5054377;28;20027;-90
2021/06/14 10:07:24;;;;;;;4.82;4.40;;;23.60;95.50;;;;;;5054380;28;20033;-90
2021/06/14 10:09:52;;;;;;;5.03;4.50;;;23.60;95.60;;;;;;5055150;28;20028;-90
2021/06/14 10:12:38;;;;;;;6.63;4.72;;;23.70;95.40;;;;;;5036745;28;20116;-91
2021/06/14 10:15:14;;;;;;;4.80;4.22;;;23.70;95.20;;;;;;5054137;28;20021;-91
2021/06/14 10:17:41;;;;;;;5.18;4.35;;;23.70;94.90;;;;;;5053877;28;20032;-90
2021/06/14 10:20:23;;;;;;;4.97;4.28;;;23.80;95.20;;;;;;5053924;28;20074;-89
2021/06/14 10:22:52;;;;;;;5.47;4.35;;;23.80;95.00;;;;;;5054882;28;20033;-90
2021/06/14 10:25:19;;;;;;;4.50;4.10;;;23.80;94.90;;;;;;5037347;28;20029;-89
2021/06/14 10:27:45;;;;;;;4.47;4.07;;;23.80;94.70;;;;;;5053915;28;20028;-90
2021/06/14 10:30:13;;;;;;;4.50;4.10;;;23.80;94.70;;;;;;5053644;28;20037;-90
2021/06/14 10:32:41;;;;;;;4.65;4.20;;;23.90;94.80;;;;;;5066132;28;20060;-91
2021/06/14 10:35:16;;;;;;;5.95;4.15;;;23.90;94.70;;;;;;5073466;28;20111;-91
2021/06/14 10:37:51;;;;;;;7.35;3.85;;;24.00;94.70;;;;;;5073100;28;20032;-88
2021/06/14 10:40:21;;;;;;;7.88;4.43;;;24.00;94.20;;;;;;5073461;28;20100;-90
2021/06/14 10:42:48;;;;;;;11.77;4.65;;;24.10;94.30;;;;;;5040546;28;20053;-91
2021/06/14 10:45:20;;;;;;;9.75;4.00;;;24.10;94.30;;;;;;5033084;28;20045;-90
2021/06/14 10:47:47;;;;;;;4.35;3.92;;;24.10;94.30;;;;;;5033117;28;20045;-89
2021/06/14 10:50:16;;;;;;;5.45;3.75;;;24.10;93.70;;;;;;5016466;28;20465;-89
2021/06/14 10:52:44;;;;;;;8.32;5.70;;;24.20;93.40;;;;;;5016588;28;20037;-88
2021/06/14 10:55:17;;;;;;;5.55;4.30;;;24.20;93.50;;;;;;5016882;28;20025;-89
2021/06/14 10:57:50;;;;;;;5.35;3.90;;;24.30;93.10;;;;;;5026959;28;20030;-90
2021/06/14 11:00:29;;;;;;;7.30;4.15;;;24.30;93.20;;;;;;5033519;28;20025;-89
2021/06/14 11:03:02;;;;;;;5.28;3.65;;;24.40;93.40;;;;;;5033994;28;20038;-90
2021/06/14 11:05:32;;;;;;;4.47;3.40;;;24.40;92.80;;;;;;5034315;28;20029;-85
2021/06/14 11:08:16;;;;;;;9.50;3.50;;;24.50;93.20;;;;;;5035468;28;20060;-92
2021/06/14 11:11:06;;;;;;;5.07;3.75;;;24.50;92.50;;;;;;5033517;28;20471;-86
2021/06/14 11:13:56;;;;;;;4.63;3.65;;;24.50;90.90;;;;;;5023322;28;20067;-87
2021/06/14 11:16:41;;;;;;;3.83;3.30;;;24.60;90.70;;;;;;5034935;28;20433;-85
2021/06/14 11:19:08;;;;;;;3.70;3.40;;;24.60;91.80;;;;;;5052122;28;20026;-85
2021/06/14 11:21:35;;;;;;;3.78;3.40;;;24.70;92.20;;;;;;5052063;28;20521;-85
2021/06/14 11:24:18;;;;;;;3.75;3.28;;;24.80;92.60;;;;;;5051884;28;20447;-85
2021/06/14 11:27:02;;;;;;;3.40;3.10;;;24.80;92.40;;;;;;5052479;28;20029;-84
2021/06/14 11:29:50;;;;;;;3.72;3.40;;;24.90;92.30;;;;;;5073376;28;20072;-86
2021/06/14 11:32:20;;;;;;;3.65;3.35;;;24.90;91.30;;;;;;5073408;28;20050;-82
2021/06/14 11:35:05;;;;;;;3.65;3.35;;;25.00;91.50;;;;;;5073411;28;20056;-83
2021/06/14 11:37:46;;;;;;;4.32;3.50;;;25.00;90.80;;;;;;5069156;28;20025;-82
2021/06/14 11:40:15;;;;;;;4.35;3.58;;;25.20;91.50;;;;;;5055536;28;20029;-83
2021/06/14 11:42:54;;;;;;;9.05;3.30;;;25.30;91.40;;;;;;5061349;28;20478;-83
2021/06/14 11:45:41;;;;;;;3.95;3.22;;;25.40;91.20;;;;;;5053127;28;20505;-83
2021/06/14 11:48:35;;;;;;;3.30;3.00;;;25.60;90.80;;;;;;5051950;28;20029;-83
2021/06/14 11:51:19;;;;;;;;;;;;;;;;;;;;;
2021/06/14 11:53:53;;;;;;;3.47;2.85;;;27.40;87.50;;;;;;5033098;28;20038;-84
2021/06/14 11:56:20;;;;;;;3.10;2.80;;;29.20;82.00;;;;;;5069334;28;20033;-85
2021/06/14 11:58:58;;;;;;;4.40;2.60;;;30.40;76.30;;;;;;5055256;28;20037;-84
2021/06/14 12:01:35;;;;;;;3.90;2.95;;;30.50;69.70;;;;;;5071432;28;20040;-83
2021/06/14 12:04:05;;;;;;;3.90;2.58;;;30.40;71.50;;;;;;5071578;28;20032;-84
2021/06/14 12:07:04;;;;;;;2.97;2.78;;;30.00;73.70;;;;;;5071822;28;20074;-83
2021/06/14 12:09:30;;;;;;;3.25;2.90;;;29.60;73.50;;;;;;5064347;28;20036;-86
2021/06/14 12:12:07;;;;;;;2.75;2.55;;;29.10;76.00;;;;;;5061396;28;20095;-86
2021/06/14 12:14:53;;;;;;;3.00;2.78;;;29.50;78.10;;;;;;5052907;28;20021;-84
2021/06/14 12:17:27;;;;;;;2.90;2.70;;;30.90;68.60;;;;;;5050975;28;20387;-84
2021/06/14 12:19:56;;;;;;;2.55;2.35;;;32.70;69.20;;;;;;5053206;28;20070;-85
2021/06/14 12:22:24;;;;;;;3.80;2.70;;;34.30;66.30;;;;;;5052714;28;20033;-84
2021/06/14 12:25:06;;;;;;;2.45;2.25;;;35.60;61.50;;;;;;5052901;28;20154;-84
2021/06/14 12:27:34;;;;;;;2.67;2.47;;;36.70;57.50;;;;;;5052911;28;20086;-85
2021/06/14 12:30:08;;;;;;;2.58;2.38;;;37.30;55.30;;;;;;5055330;28;20028;-88
2021/06/14 12:32:33;;;;;;;2.67;2.47;;;37.50;51.70;;;;;;5054328;28;20091;-85
2021/06/14 12:35:13;;;;;;;5.13;2.67;;;37.20;54.10;;;;;;5038860;28;20785;-86
2021/06/14 12:37:39;;;;;;;7.70;3.00;;;36.70;54.90;;;;;;5055495;28;20021;-86
2021/06/14 12:40:13;;;;;;;3.15;2.67;;;36.10;54.50;;;;;;5056474;28;20486;-87
2021/06/14 12:42:42;;;;;;;4.70;2.58;;;35.30;54.00;;;;;;5056478;28;20041;-92
2021/06/14 12:45:18;;;;;;;3.17;2.60;;;34.40;54.10;;;;;;5055810;28;20840;-93
2021/06/14 12:48:11;;;;;;;3.00;2.63;;;33.40;56.10;;;;;;5056000;28;20096;-95
2021/06/14 12:50:46;;;;;;;2.70;2.50;;;32.50;58.50;;;;;;5041888;28;20035;-93
2021/06/14 12:53:18;;;;;;;9.18;3.30;;;31.70;59.30;;;;;;5057002;28;20049;-93
2021/06/14 12:55:45;;;;;;;5.35;3.25;;;31.10;60.50;;;;;;5057410;28;20031;-96
2021/06/14 12:58:35;;;;;;;3.42;2.97;;;30.80;61.60;;;;;;5041439;28;20029;-96
2021/06/14 13:01:19;;;;;;;3.63;2.63;;;30.70;61.80;;;;;;5058156;28;20079;-96
2021/06/14 13:03:50;;;;;;;3.65;2.83;;;30.90;63.20;;;;;;5055550;28;20051;-96
2021/06/14 13:06:35;;;;;;;3.63;3.28;;;31.20;62.60;;;;;;5056533;28;20120;-95
2021/06/14 13:09:03;;;;;;;3.58;3.28;;;31.00;61.40;;;;;;5051431;28;20031;-96
2021/06/14 13:11:39;;;;;;;3.45;3.15;;;30.70;62.30;;;;;;5057681;28;20104;-95
2021/06/14 13:14:04;;;;;;;3.38;3.17;;;30.50;63.60;;;;;;5055169;28;20120;-94
2021/06/14 13:16:32;;;;;;;4.43;3.75;;;30.40;63.60;;;;;;5056904;28;20352;-92
2021/06/14 13:19:01;;;;;;;4.97;3.20;;;30.80;63.00;;;;;;5038863;28;20497;-92
2021/06/14 13:21:32;;;;;;;3.50;3.20;;;31.20;61.80;;;;;;5055721;28;20043;-95
2021/06/14 13:24:16;;;;;;;3.88;3.50;;;31.50;61.60;;;;;;5056119;28;20059;-94
2021/06/14 13:26:44;;;;;;;4.13;3.63;;;31.80;60.70;;;;;;5055272;28;20029;-91